createdAt,value
2023-04-11T00:02:14.837Z,97016.94
2023-04-11T00:04:42.894Z,97022.78
2023-04-11T00:07:10.797Z,96990.53
2023-04-11T00:09:41.484Z,96980.94
2023-04-11T00:12:10.703Z,96975.03
2023-04-11T00:14:38.486Z,96960.16
2023-04-11T00:17:06.209Z,96948.84
2023-04-11T00:19:34.454Z,96954.63
2023-04-11T00:22:02.921Z,96957.13
2023-04-11T00:24:30.580Z,96953.06
2023-04-11T00:26:58.426Z,96968.59
2023-04-11T00:29:27.471Z,96974.53
2023-04-11T00:31:56.821Z,96978.59
2023-04-11T00:34:24.541Z,96983.56
2023-04-11T00:36:52.861Z,96980.53
2023-04-11T00:39:21.250Z,96986.69
2023-04-11T00:41:48.957Z,97000.66
2023-04-11T00:44:16.758Z,97005.56
2023-04-11T00:46:46.531Z,97018.84
2023-04-11T00:49:14.132Z,97018.84
2023-04-11T00:51:42.078Z,97027.84
2023-04-11T00:54:10.420Z,97032.44
2023-04-11T00:56:38.189Z,97030.28
2023-04-11T00:59:06.484Z,97026.63
2023-04-11T01:01:36.336Z,97012.38
2023-04-11T01:04:06.339Z,97022.53
2023-04-11T01:06:34.355Z,97020.13
2023-04-11T01:09:01.998Z,97009.25
2023-04-11T01:11:29.634Z,97014.78
2023-04-11T01:13:57.246Z,97016.59
2023-04-11T01:16:25.116Z,97015.94
2023-04-11T01:18:52.990Z,97013.50
2023-04-11T01:21:22.351Z,97012.69
2023-04-11T01:23:52.851Z,96995.72
2023-04-11T01:26:20.838Z,96995.97
2023-04-11T01:28:48.534Z,96984.94
2023-04-11T01:31:16.334Z,96977.31
2023-04-11T01:33:44.280Z,96972.06
2023-04-11T01:36:12.026Z,96970.81
2023-04-11T01:38:39.845Z,96965.31
2023-04-11T01:41:08.968Z,96966.22
2023-04-11T01:43:36.570Z,96969.78
2023-04-11T01:46:04.259Z,96970.69
2023-04-11T01:48:34.665Z,96967.28
2023-04-11T01:51:02.505Z,96954.81
2023-04-11T01:53:30.140Z,96960.16
2023-04-11T01:55:57.756Z,96954.28
2023-04-11T01:58:26.793Z,96956.19
2023-04-11T02:00:55.326Z,96945.38
2023-04-11T02:03:23.852Z,96957.97
2023-04-11T02:05:51.675Z,96942.31
2023-04-11T02:08:19.409Z,96940.91
2023-04-11T02:10:48.702Z,96929.41
2023-04-11T02:13:16.284Z,96934.25
2023-04-11T02:15:45.447Z,96925.13
2023-04-11T02:18:13.183Z,96911.25
2023-04-11T02:20:43.373Z,96899.66
2023-04-11T02:23:11.068Z,96896.03
2023-04-11T02:25:40.513Z,96876.38
2023-04-11T02:28:08.614Z,96861.78
2023-04-11T02:30:36.395Z,96850.41
2023-04-11T02:33:05.647Z,96839.94
2023-04-11T02:35:34.033Z,96835.69
2023-04-11T02:38:01.712Z,96846.84
2023-04-11T02:40:31.138Z,96855.09
2023-04-11T02:43:01.182Z,96852.47
2023-04-11T02:45:29.607Z,96849.69
2023-04-11T02:47:58.430Z,96851.78
2023-04-11T02:50:27.686Z,96855.44
2023-04-11T02:52:56.110Z,96845.56
2023-04-11T02:55:27.484Z,96850.34
2023-04-11T02:57:55.570Z,96845.31
2023-04-11T03:00:23.456Z,96844.66
2023-04-11T03:02:59.104Z,96846.91
2023-04-11T03:05:29.229Z,96852.81
2023-04-11T03:07:57.812Z,96857.88
2023-04-11T03:10:27.550Z,96868.13
2023-04-11T03:12:56.122Z,96883.41
2023-04-11T03:15:23.827Z,96887.31
2023-04-11T03:17:51.506Z,96892.50
2023-04-11T03:20:20.325Z,96895.47
2023-04-11T03:22:53.710Z,96896.03
2023-04-11T03:25:24.915Z,96904.06
2023-04-11T03:27:53.610Z,96898.81
2023-04-11T03:30:21.471Z,96918.53
2023-04-11T03:32:49.203Z,96929.31
2023-04-11T03:35:18.779Z,96932.47
2023-04-11T03:37:48.154Z,96937.44
2023-04-11T03:40:18.808Z,96935.41
2023-04-11T03:42:52.144Z,96947.41
2023-04-11T03:45:24.087Z,96953.44
2023-04-11T03:47:54.571Z,96957.91
2023-04-11T03:50:26.245Z,96964.28
2023-04-11T03:52:58.940Z,96966.44
2023-04-11T03:55:28.188Z,96970.28
2023-04-11T03:57:57.717Z,96979.84
2023-04-11T04:00:26.795Z,96985.66
2023-04-11T04:03:07.196Z,96991.94
2023-04-11T04:05:36.524Z,96996.94
2023-04-11T04:08:04.819Z,97010.63
2023-04-11T04:10:51.082Z,97029.94
2023-04-11T04:13:19.117Z,97032.75
2023-04-11T04:16:03.470Z,97032.03
2023-04-11T04:18:31.690Z,97035.06
2023-04-11T04:21:01.169Z,97048.69
2023-04-11T04:23:30.065Z,97046.25
2023-04-11T04:26:16.116Z,97057.22
2023-04-11T04:28:49.069Z,97058.84
2023-04-11T04:31:33.849Z,97062.06
2023-04-11T04:34:08.879Z,97068.81
2023-04-11T04:36:48.691Z,97076.38
2023-04-11T04:39:25.474Z,97070.78
2023-04-11T04:41:59.117Z,97064.63
2023-04-11T04:44:34.141Z,97064.25
2023-04-11T04:47:06.442Z,97071.59
2023-04-11T04:49:34.190Z,97071.19
2023-04-11T04:52:01.993Z,97076.25
2023-04-11T04:54:31.374Z,97082.69
2023-04-11T04:57:01.326Z,97093.09
2023-04-11T04:59:29.380Z,97096.25
2023-04-11T05:02:04.194Z,97116.50
2023-04-11T05:04:34.173Z,97121.91
2023-04-11T05:07:02.074Z,97147.53
2023-04-11T05:09:31.579Z,97152.13
2023-04-11T05:12:11.291Z,97162.91
2023-04-11T05:14:41.213Z,97156.06
2023-04-11T05:17:08.916Z,97152.38
2023-04-11T05:19:36.645Z,97169.03
2023-04-11T05:22:04.453Z,97185.16
2023-04-11T05:24:37.231Z,97192.59
2023-04-11T05:27:08.388Z,97188.84
2023-04-11T05:29:37.664Z,97208.34
2023-04-11T05:32:05.864Z,97220.69
2023-04-11T05:34:34.396Z,97216.19
2023-04-11T05:37:02.490Z,97225.97
2023-04-11T05:39:30.233Z,97248.22
2023-04-11T05:41:58.137Z,97240.78
2023-04-11T05:44:25.867Z,97255.63
2023-04-11T05:46:54.939Z,97256.03
2023-04-11T05:49:22.686Z,97259.75
2023-04-11T05:51:53.260Z,97279.88
2023-04-11T05:54:31.697Z,97281.44
2023-04-11T05:57:01.222Z,97288.97
2023-04-11T05:59:30.727Z,97294.56
2023-04-11T06:01:59.791Z,97292.91
2023-04-11T06:04:27.791Z,97306.66
2023-04-11T06:06:55.639Z,97311.25
2023-04-11T06:09:23.369Z,97328.97
2023-04-11T06:11:53.400Z,97353.50
2023-04-11T06:14:21.057Z,97366.94
2023-04-11T06:16:48.806Z,97384.63
2023-04-11T06:19:17.930Z,97398.72
2023-04-11T06:21:45.819Z,97402.81
2023-04-11T06:24:13.484Z,97414.78
2023-04-11T06:26:41.315Z,97421.28
2023-04-11T06:29:09.023Z,97414.75
2023-04-11T06:31:36.710Z,97419.03
2023-04-11T06:34:04.421Z,97429.31
2023-04-11T06:36:33.546Z,97432.44
2023-04-11T06:39:01.455Z,97437.84
2023-04-11T06:41:29.109Z,97446.38
2023-04-11T06:43:59.895Z,97463.66
2023-04-11T06:46:27.622Z,97473.44
2023-04-11T06:48:55.912Z,97483.31
2023-04-11T06:51:23.528Z,97488.53
2023-04-11T06:53:52.505Z,97485.56
2023-04-11T06:56:20.142Z,97507.19
2023-04-11T06:58:47.817Z,97515.75
2023-04-11T07:01:15.996Z,97515.69
2023-04-11T07:03:44.161Z,97531.81
2023-04-11T07:06:12.027Z,97519.63
2023-04-11T07:08:39.729Z,97532.41
2023-04-11T07:11:08.959Z,97535.03
2023-04-11T07:13:36.705Z,97542.91
2023-04-11T07:16:04.507Z,97548.41
2023-04-11T07:18:32.357Z,97558.63
2023-04-11T07:21:00.038Z,97577.19
2023-04-11T07:23:27.742Z,97567.75
2023-04-11T07:25:55.723Z,97576.69
2023-04-11T07:28:25.176Z,97579.00
2023-04-11T07:30:52.970Z,97569.59
2023-04-11T07:33:21.449Z,97557.94
2023-04-11T07:35:49.210Z,97548.81
2023-04-11T07:38:29.658Z,97566.53
2023-04-11T07:40:57.489Z,97582.97
2023-04-11T07:43:26.894Z,97591.34
2023-04-11T07:45:54.723Z,97596.81
2023-04-11T07:48:22.992Z,97606.59
2023-04-11T07:50:50.659Z,97607.38
2023-04-11T07:53:18.373Z,97583.28
2023-04-11T07:55:46.166Z,97593.03
2023-04-11T07:58:13.831Z,97598.53
2023-04-11T08:00:43.104Z,97605.25
2023-04-11T08:03:11.395Z,97611.44
2023-04-11T08:05:39.247Z,97610.00
2023-04-11T08:08:07.036Z,97603.44
2023-04-11T08:10:34.652Z,97603.59
2023-04-11T08:13:02.272Z,97601.09
2023-04-11T08:15:29.901Z,97581.47
2023-04-11T08:17:59.814Z,97577.75
2023-04-11T08:20:27.476Z,97580.41
2023-04-11T08:22:55.522Z,97591.25
2023-04-11T08:25:23.700Z,97575.50
2023-04-11T08:27:52.936Z,97574.69
2023-04-11T08:30:21.427Z,97575.16
2023-04-11T08:32:49.195Z,97572.22
2023-04-11T08:35:18.338Z,97569.28
2023-04-11T08:37:46.057Z,97554.50
2023-04-11T08:40:13.929Z,97559.91
2023-04-11T08:42:44.012Z,97547.09
2023-04-11T08:45:12.191Z,97541.84
2023-04-11T08:47:40.087Z,97541.59
2023-04-11T08:50:08.853Z,97530.06
2023-04-11T08:52:37.947Z,97517.75
2023-04-11T08:55:06.066Z,97513.47
2023-04-11T08:57:34.841Z,97500.81
2023-04-11T09:00:10.817Z,97482.25
2023-04-11T09:02:44.057Z,97472.03
2023-04-11T09:05:16.767Z,97456.38
2023-04-11T09:07:50.710Z,97449.84
2023-04-11T09:10:21.808Z,97422.25
2023-04-11T09:12:49.435Z,97418.09
2023-04-11T09:15:20.947Z,97378.84
2023-04-11T09:17:49.862Z,97339.81
2023-04-11T09:20:20.504Z,97341.31
2023-04-11T09:22:50.864Z,97304.84
2023-04-11T09:25:18.705Z,97303.28
2023-04-11T09:27:46.426Z,97271.53
2023-04-11T09:30:22.665Z,97248.84
2023-04-11T09:32:53.260Z,97215.06
2023-04-11T09:35:22.899Z,97169.00
2023-04-11T09:37:53.644Z,97150.97
2023-04-11T09:40:21.717Z,97135.84
2023-04-11T09:42:49.762Z,97092.16
2023-04-11T09:45:20.464Z,97080.59
2023-04-11T09:47:48.430Z,97051.53
2023-04-11T09:50:16.217Z,97039.63
2023-04-11T09:52:44.463Z,97036.31
2023-04-11T09:55:14.618Z,97020.88
2023-04-11T09:57:45.851Z,96993.81
2023-04-11T10:00:16.926Z,96953.56
2023-04-11T10:02:46.013Z,96947.22
2023-04-11T10:05:14.128Z,96940.16
2023-04-11T10:07:53.830Z,96932.31
2023-04-11T10:10:23.148Z,96918.09
2023-04-11T10:12:50.908Z,96905.13
2023-04-11T10:15:18.560Z,96889.66
2023-04-11T10:18:01.871Z,96875.91
2023-04-11T10:20:43.759Z,96870.63
2023-04-11T10:23:11.452Z,96846.50
2023-04-11T10:25:56.403Z,96837.94
2023-04-11T10:28:34.104Z,96846.84
2023-04-11T10:31:05.885Z,96837.28
2023-04-11T10:33:33.827Z,96834.44
2023-04-11T10:36:03.231Z,96834.75
2023-04-11T10:38:49.619Z,96840.50
2023-04-11T10:41:32.700Z,96844.00
2023-04-11T10:44:16.086Z,96845.47
2023-04-11T10:46:47.571Z,96843.75
2023-04-11T10:49:17.695Z,96849.88
2023-04-11T10:51:45.356Z,96848.69
2023-04-11T10:54:25.287Z,96856.41
2023-04-11T10:56:57.785Z,96853.94
2023-04-11T10:59:44.160Z,96860.03
2023-04-11T11:02:11.894Z,96855.25
2023-04-11T11:04:40.203Z,96850.50
2023-04-11T11:07:08.363Z,96871.38
2023-04-11T11:09:36.297Z,96878.94
2023-04-11T11:12:09.005Z,96930.97
2023-04-11T11:14:36.810Z,96943.75
2023-04-11T11:17:04.536Z,96977.50
2023-04-11T11:19:32.380Z,96970.09
2023-04-11T11:22:03.883Z,96966.59
2023-04-11T11:24:31.708Z,96981.25
2023-04-11T11:26:59.571Z,96986.88
2023-04-11T11:29:35.706Z,97000.38
2023-04-11T11:32:04.018Z,97015.84
2023-04-11T11:34:32.382Z,97035.66
2023-04-11T11:37:01.509Z,97039.34
2023-04-11T11:39:29.555Z,97024.97
2023-04-11T11:41:57.849Z,97021.00
2023-04-11T11:44:26.128Z,97022.22
2023-04-11T11:47:12.863Z,97020.50
2023-04-11T11:49:48.597Z,97027.41
2023-04-11T11:52:31.695Z,97032.47
2023-04-11T11:54:59.731Z,97035.31
2023-04-11T11:57:27.572Z,97036.56
2023-04-11T11:59:56.203Z,97029.25
2023-04-11T12:02:24.126Z,97040.72
2023-04-11T12:04:53.500Z,97047.88
2023-04-11T12:07:21.919Z,97052.69
2023-04-11T12:09:49.584Z,97053.84
2023-04-11T12:12:17.437Z,97049.66
2023-04-11T12:14:53.043Z,97063.16
2023-04-11T12:17:20.886Z,97051.69
2023-04-11T12:19:48.644Z,97062.66
2023-04-11T12:22:17.849Z,97074.22
2023-04-11T12:24:45.840Z,97070.00
2023-04-11T12:27:13.575Z,97078.84
2023-04-11T12:29:41.283Z,97071.97
2023-04-11T12:32:08.943Z,97083.88
2023-04-11T12:34:36.576Z,97101.94
2023-04-11T12:37:04.308Z,97134.19
2023-04-11T12:39:33.793Z,97143.53
2023-04-11T12:42:01.402Z,97138.78
2023-04-11T12:44:29.097Z,97129.28
2023-04-11T12:46:57.040Z,97129.84
2023-04-11T12:49:24.735Z,97119.03
2023-04-11T12:51:52.448Z,97125.59
2023-04-11T12:54:20.154Z,97134.09
2023-04-11T12:56:49.121Z,97149.78
2023-04-11T12:59:16.911Z,97146.06
2023-04-11T13:01:44.689Z,97158.28
2023-04-11T13:04:12.676Z,97166.97
2023-04-11T13:06:41.025Z,97169.25
2023-04-11T13:09:08.643Z,97179.88
2023-04-11T13:11:36.603Z,97189.34
2023-04-11T13:14:05.644Z,97185.72
2023-04-11T13:16:34.051Z,97184.88
2023-04-11T13:19:01.983Z,97193.63
2023-04-11T13:21:29.701Z,97197.41
2023-04-11T13:23:57.762Z,97204.75
2023-04-11T13:26:25.522Z,97211.56
2023-04-11T13:28:53.268Z,97223.75
2023-04-11T13:31:26.378Z,97217.66
2023-04-11T13:33:54.328Z,97219.84
2023-04-11T13:36:22.047Z,97222.03
2023-04-11T13:38:50.163Z,97222.72
2023-04-11T13:41:17.921Z,97222.91
2023-04-11T13:43:45.758Z,97204.00
2023-04-11T13:46:14.139Z,97181.84
2023-04-11T13:48:43.367Z,97196.16
2023-04-11T13:51:11.311Z,97184.97
2023-04-11T13:53:38.984Z,97182.75
2023-04-11T13:56:08.038Z,97187.66
2023-04-11T13:58:35.778Z,97189.03
2023-04-11T14:01:03.491Z,97184.69
2023-04-11T14:03:33.728Z,97170.72
2023-04-11T14:06:03.502Z,97171.25
2023-04-11T14:08:31.246Z,97161.53
2023-04-11T14:10:58.935Z,97140.41
2023-04-11T14:13:26.689Z,97149.47
2023-04-11T14:16:07.931Z,97146.59
2023-04-11T14:18:36.155Z,97138.72
2023-04-11T14:21:05.786Z,97122.84
2023-04-11T14:23:33.526Z,97115.09
2023-04-11T14:26:01.284Z,97107.78
2023-04-11T14:28:28.881Z,97115.72
2023-04-11T14:30:57.039Z,97115.28
2023-04-11T14:33:24.838Z,97106.97
2023-04-11T14:35:52.828Z,97106.03
2023-04-11T14:38:24.947Z,97124.56
2023-04-11T14:40:52.951Z,97120.47
2023-04-11T14:43:20.680Z,97108.50
2023-04-11T14:45:48.677Z,97106.81
2023-04-11T14:48:16.403Z,97104.75
2023-04-11T14:50:44.153Z,97115.09
2023-04-11T14:53:12.631Z,97124.69
2023-04-11T14:55:42.841Z,97135.13
2023-04-11T14:58:11.833Z,97126.03
2023-04-11T15:00:40.480Z,97111.97
2023-04-11T15:03:08.471Z,97110.91
2023-04-11T15:05:36.640Z,97114.81
2023-04-11T15:08:04.376Z,97116.25
2023-04-11T15:10:32.030Z,97147.59
2023-04-11T15:13:01.304Z,97147.91
2023-04-11T15:15:29.000Z,97147.25
2023-04-11T15:18:11.610Z,97134.69
2023-04-11T15:20:39.541Z,97126.97
2023-04-11T15:23:07.254Z,97111.34
2023-04-11T15:25:37.153Z,97102.22
2023-04-11T15:28:06.386Z,97109.47
2023-04-11T15:30:34.140Z,97106.13
2023-04-11T15:33:01.880Z,97100.34
2023-04-11T15:35:29.579Z,97098.63
2023-04-11T15:37:57.468Z,97099.22
2023-04-11T15:40:25.119Z,97103.25
2023-04-11T15:42:52.808Z,97109.38
2023-04-11T15:45:21.856Z,97144.53
2023-04-11T15:47:49.491Z,97127.72
2023-04-11T15:50:17.537Z,97116.97
2023-04-11T15:52:47.726Z,97124.97
2023-04-11T15:55:15.435Z,97133.41
2023-04-11T15:57:43.192Z,97142.69
2023-04-11T16:00:11.626Z,97159.91
2023-04-11T16:02:40.833Z,97177.69
2023-04-11T16:05:08.933Z,97216.28
2023-04-11T16:07:37.333Z,97243.84
2023-04-11T16:10:05.509Z,97244.78
2023-04-11T16:12:33.464Z,97208.25
2023-04-11T16:15:01.228Z,97168.94
2023-04-11T16:17:29.034Z,97160.66
2023-04-11T16:19:58.211Z,97153.03
2023-04-11T16:22:26.047Z,97161.00
2023-04-11T16:24:54.404Z,97166.84
2023-04-11T16:27:22.247Z,97165.16
2023-04-11T16:29:50.159Z,97158.88
2023-04-11T16:32:18.164Z,97164.78
2023-04-11T16:34:45.889Z,97155.69
2023-04-11T16:37:14.975Z,97161.66
2023-04-11T16:39:42.696Z,97164.13
2023-04-11T16:42:10.782Z,97153.19
2023-04-11T16:44:38.536Z,97155.13
2023-04-11T16:47:06.388Z,97150.63
2023-04-11T16:49:34.068Z,97158.81
2023-04-11T16:52:02.127Z,97147.91
2023-04-11T16:54:31.373Z,97159.03
2023-04-11T16:56:59.204Z,97155.41
2023-04-11T16:59:28.115Z,97161.66
2023-04-11T17:01:56.197Z,97170.88
2023-04-11T17:04:23.915Z,97173.53
2023-04-11T17:06:51.606Z,97177.41
2023-04-11T17:09:19.313Z,97179.41
2023-04-11T17:11:48.319Z,97187.34
2023-04-11T17:14:16.028Z,97203.09
2023-04-11T17:16:46.284Z,97204.72
2023-04-11T17:19:13.900Z,97221.19
2023-04-11T17:21:41.513Z,97238.22
2023-04-11T17:24:09.052Z,97241.03
2023-04-11T17:26:36.792Z,97243.16
2023-04-11T17:29:06.554Z,97240.69
2023-04-11T17:31:34.506Z,97232.69
2023-04-11T17:34:02.051Z,97231.84
2023-04-11T17:36:30.997Z,97237.25
2023-04-11T17:38:58.618Z,97236.09
2023-04-11T17:41:26.315Z,97223.31
2023-04-11T17:43:55.979Z,97227.56
2023-04-11T17:46:25.172Z,97235.31
2023-04-11T17:48:52.726Z,97247.72
2023-04-11T17:51:20.462Z,97231.34
2023-04-11T17:53:48.106Z,97238.72
2023-04-11T17:56:15.962Z,97242.34
2023-04-11T17:58:45.199Z,97255.84
2023-04-11T18:01:13.462Z,97270.31
2023-04-11T18:03:44.077Z,97277.69
2023-04-11T18:06:12.250Z,97294.66
2023-04-11T18:08:49.837Z,97299.56
2023-04-11T18:11:19.443Z,97303.75
2023-04-11T18:13:49.856Z,97306.19
2023-04-11T18:16:17.999Z,97311.59
2023-04-11T18:18:47.687Z,97323.25
2023-04-11T18:21:16.041Z,97302.25
2023-04-11T18:23:43.740Z,97310.84
2023-04-11T18:26:11.316Z,97301.41
2023-04-11T18:28:39.005Z,97298.19
2023-04-11T18:31:06.922Z,97305.22
2023-04-11T18:33:36.626Z,97313.25
2023-04-11T18:36:08.568Z,97316.72
2023-04-11T18:38:38.868Z,97321.09
2023-04-11T18:41:07.869Z,97316.28
2023-04-11T18:43:38.114Z,97326.22
2023-04-11T18:46:07.542Z,97337.19
2023-04-11T18:48:35.611Z,97342.13
2023-04-11T18:51:03.569Z,97344.19
2023-04-11T18:53:32.545Z,97353.44
2023-04-11T18:56:03.131Z,97360.81
2023-04-11T18:58:33.496Z,97357.69
2023-04-11T19:01:14.130Z,97361.84
2023-04-11T19:03:43.813Z,97381.22
2023-04-11T19:06:11.730Z,97374.84
2023-04-11T19:08:40.761Z,97364.66
2023-04-11T19:11:08.348Z,97365.13
2023-04-11T19:13:35.918Z,97371.31
2023-04-11T19:16:03.787Z,97378.03
2023-04-11T19:18:31.378Z,97379.28
2023-04-11T19:20:59.140Z,97369.06
2023-04-11T19:23:26.736Z,97369.97
2023-04-11T19:25:55.811Z,97367.94
2023-04-11T19:28:23.463Z,97364.16
2023-04-11T19:30:51.213Z,97364.03
2023-04-11T19:33:19.030Z,97378.59
2023-04-11T19:35:46.583Z,97368.72
2023-04-11T19:38:14.178Z,97358.25
2023-04-11T19:40:41.711Z,97363.03
2023-04-11T19:43:10.703Z,97359.00
2023-04-11T19:45:38.250Z,97354.97
2023-04-11T19:48:06.010Z,97343.66
2023-04-11T19:50:33.681Z,97321.66
2023-04-11T19:53:01.645Z,97311.66
2023-04-11T19:55:29.378Z,97304.56
2023-04-11T19:57:56.997Z,97287.28
2023-04-11T20:00:27.313Z,97288.47
2023-04-11T20:02:55.965Z,97288.94
2023-04-11T20:05:23.777Z,97291.78
2023-04-11T20:07:51.293Z,97292.72
2023-04-11T20:10:18.837Z,97294.25
2023-04-11T20:12:46.550Z,97301.81
2023-04-11T20:15:14.873Z,97296.06
2023-04-11T20:17:46.073Z,97283.41
2023-04-11T20:20:15.357Z,97293.47
2023-04-11T20:22:44.838Z,97298.00
2023-04-11T20:25:12.840Z,97297.38
2023-04-11T20:27:40.786Z,97303.97
2023-04-11T20:30:10.385Z,97301.47
2023-04-11T20:32:38.120Z,97299.53
2023-04-11T20:35:08.699Z,97298.50
2023-04-11T20:37:36.366Z,97293.88
2023-04-11T20:40:06.743Z,97298.00
2023-04-11T20:42:35.137Z,97310.44
2023-04-11T20:45:08.184Z,97318.25
2023-04-11T20:47:37.255Z,97326.38
2023-04-11T20:50:05.707Z,97322.44
2023-04-11T20:52:34.744Z,97321.88
2023-04-11T20:55:05.019Z,97323.28
2023-04-11T20:57:33.510Z,97339.94
2023-04-11T21:00:01.270Z,97340.66
2023-04-11T21:02:28.985Z,97343.00
2023-04-11T21:04:56.698Z,97352.53
2023-04-11T21:07:24.257Z,97349.50
2023-04-11T21:09:54.460Z,97362.09
2023-04-11T21:12:22.121Z,97354.84
2023-04-11T21:14:49.702Z,97353.34
2023-04-11T21:17:17.186Z,97351.13
2023-04-11T21:19:44.701Z,97346.91
2023-04-11T21:22:12.873Z,97340.69
2023-04-11T21:24:40.419Z,97346.56
2023-04-11T21:27:09.285Z,97348.13
2023-04-11T21:29:36.820Z,97346.81
2023-04-11T21:32:07.428Z,97346.28
2023-04-11T21:34:34.988Z,97341.94
2023-04-11T21:37:02.506Z,97341.94
2023-04-11T21:39:30.050Z,97342.50
2023-04-11T21:41:57.606Z,97336.59
2023-04-11T21:44:26.493Z,97331.53
2023-04-11T21:46:54.060Z,97328.19
2023-04-11T21:49:21.586Z,97321.50
2023-04-11T21:51:49.443Z,97310.28
2023-04-11T21:54:17.024Z,97303.19
2023-04-11T21:56:44.934Z,97300.59
2023-04-11T21:59:12.498Z,97303.06
2023-04-11T22:01:41.741Z,97305.38
2023-04-11T22:04:10.712Z,97301.03
2023-04-11T22:06:38.879Z,97304.31
2023-04-11T22:09:06.722Z,97310.31
2023-04-11T22:11:34.306Z,97316.34
2023-04-11T22:14:02.204Z,97319.63
2023-04-11T22:16:31.473Z,97317.97
2023-04-11T22:19:00.626Z,97315.53
2023-04-11T22:21:28.435Z,97318.81
2023-04-11T22:23:56.673Z,97320.72
2023-04-11T22:26:26.747Z,97311.69
2023-04-11T22:28:55.182Z,97318.09
2023-04-11T22:31:22.893Z,97317.19
2023-04-11T22:33:50.560Z,97314.28
2023-04-11T22:36:19.446Z,97302.66
2023-04-11T22:38:46.969Z,97302.66
2023-04-11T22:41:15.271Z,97314.41
2023-04-11T22:43:42.893Z,97311.00
2023-04-11T22:46:10.925Z,97320.16
2023-04-11T22:48:38.594Z,97314.00
2023-04-11T22:51:07.105Z,97307.47
2023-04-11T22:53:41.996Z,97308.69
2023-04-11T22:56:09.830Z,97312.09
2023-04-11T22:58:37.826Z,97307.28
2023-04-11T23:01:06.184Z,97303.19
2023-04-11T23:03:33.722Z,97311.94
2023-04-11T23:06:01.712Z,97305.91
2023-04-11T23:08:30.057Z,97307.72
2023-04-11T23:10:59.461Z,97309.06
2023-04-11T23:13:27.100Z,97304.81
2023-04-11T23:15:54.767Z,97294.69
2023-04-11T23:18:22.364Z,97305.97
2023-04-11T23:20:50.737Z,97296.00
2023-04-11T23:23:18.410Z,97296.00
2023-04-11T23:25:45.951Z,97295.22
2023-04-11T23:28:14.822Z,97291.38
2023-04-11T23:30:42.470Z,97291.06
2023-04-11T23:33:10.077Z,97293.41
2023-04-11T23:35:37.813Z,97295.38
2023-04-11T23:38:06.014Z,97299.28
2023-04-11T23:40:33.777Z,97297.63
2023-04-11T23:43:01.616Z,97296.56
2023-04-11T23:45:30.749Z,97292.75
2023-04-11T23:47:58.333Z,97299.84
2023-04-11T23:50:26.604Z,97303.00
2023-04-11T23:52:54.842Z,97303.00
2023-04-11T23:55:22.396Z,97293.28
2023-04-11T23:57:49.915Z,97286.13
